Time;durP1;ratioP1;P1;durP2;ratioP2;P2;SDS_P1;SDS_P2;PMS_P1;PMS_P2;Temp;Humidity;BMP_temperature;BMP_pressure;BME280_temperature;BME280_humidity;BME280_pressure;Samples;Min_cycle;Max_cycle;Signal;HPM_P1;HPM_P2
2023/05/10 00:01:02;;;;;;;4.85;1.40;;;;;;;21.34;54.92;99900.34;4916475;29;20038;-69
2023/05/10 00:03:28;;;;;;;5.45;1.75;;;;;;;21.32;55.00;99902.25;4933420;29;20030;-69
2023/05/10 00:05:53;;;;;;;4.45;1.60;;;;;;;21.32;55.04;99888.97;4933753;29;20023;-70
2023/05/10 00:08:18;;;;;;;4.28;1.35;;;;;;;21.29;54.81;99892.66;4933557;29;20106;-68
2023/05/10 00:10:44;;;;;;;6.25;1.55;;;;;;;21.28;55.11;99887.44;4932731;29;20118;-70
2023/05/10 00:13:09;;;;;;;4.05;1.65;;;;;;;21.29;54.95;99897.97;4933644;28;20032;-68
2023/05/10 00:15:35;;;;;;;5.32;1.65;;;;;;;21.28;55.07;99895.38;4933766;28;20396;-69
2023/05/10 00:18:00;;;;;;;5.13;1.70;;;;;;;21.28;54.85;99895.38;4944758;28;20482;-67
2023/05/10 00:20:26;;;;;;;6.05;1.67;;;;;;;21.30;54.81;99901.47;4914521;29;20114;-68
2023/05/10 00:22:51;;;;;;;3.72;1.42;;;;;;;21.30;54.95;99906.75;4914551;29;20098;-69
2023/05/10 00:25:17;;;;;;;4.03;1.45;;;;;;;21.28;55.03;99904.22;4914468;29;20031;-69
2023/05/10 00:27:42;;;;;;;4.95;1.70;;;;;;;21.28;55.02;99904.22;4914359;29;20440;-70
2023/05/10 00:30:08;;;;;;;4.97;1.42;;;;;;;21.27;54.91;99899.00;4914495;29;20039;-69
2023/05/10 00:32:34;;;;;;;4.65;1.67;;;;;;;21.26;54.91;99902.59;4914138;29;20031;-69
2023/05/10 00:34:59;;;;;;;4.78;1.70;;;;;;;21.29;54.89;99891.78;4914363;29;20098;-70
2023/05/10 00:37:25;;;;;;;5.78;1.88;;;;;;;21.27;54.79;99888.38;4925954;28;20040;-69
2023/05/10 00:39:50;;;;;;;6.07;1.83;;;;;;;21.24;54.66;99892.06;4933255;28;20069;-69
2023/05/10 00:42:15;;;;;;;4.57;1.70;;;;;;;21.24;54.81;99891.19;4933381;28;20027;-69
2023/05/10 00:44:41;;;;;;;8.32;2.20;;;;;;;21.27;54.87;99883.94;4933036;29;20497;-69
2023/05/10 00:47:07;;;;;;;4.57;1.33;;;;;;;21.23;54.79;99882.38;4932775;28;20097;-69
2023/05/10 00:49:34;;;;;;;4.28;1.75;;;;;;;21.23;54.93;99878.84;4929931;29;20355;-68
2023/05/10 00:51:59;;;;;;;5.82;1.60;;;;;;;21.23;54.80;99881.50;4933038;29;20042;-70
2023/05/10 00:54:25;;;;;;;5.10;1.60;;;;;;;21.22;54.94;99885.13;4932721;28;20048;-69
2023/05/10 00:56:51;;;;;;;3.65;1.42;;;;;;;21.20;54.85;99877.22;4933376;29;20093;-70
2023/05/10 00:59:17;;;;;;;4.85;1.60;;;;;;;21.18;54.94;99874.69;4933112;29;20031;-70
2023/05/10 01:01:44;;;;;;;5.10;1.50;;;;;;;21.18;54.96;99879.13;4932625;29;20031;-70
2023/05/10 01:04:12;;;;;;;4.10;1.48;;;;;;;21.17;54.94;99872.94;4932750;29;20031;-69
2023/05/10 01:06:38;;;;;;;6.35;1.80;;;;;;;21.17;54.83;99872.94;4932477;29;20027;-68
2023/05/10 01:09:06;;;;;;;4.43;1.90;;;;;;;21.18;54.78;99877.34;4932887;29;20089;-69
2023/05/10 01:11:31;;;;;;;4.05;1.70;;;;;;;21.16;54.87;99881.84;4932670;29;20058;-70
2023/05/10 01:13:58;;;;;;;5.43;1.85;;;;;;;21.13;55.01;99873.22;4932708;29;20063;-70
2023/05/10 01:16:25;;;;;;;3.42;1.63;;;;;;;21.15;55.01;99880.16;4932388;28;20032;-70
2023/05/10 01:18:51;;;;;;;4.53;1.60;;;;;;;21.14;54.86;99880.22;4932678;29;20032;-69
2023/05/10 01:21:37;;;;;;;3.70;1.50;;;;;;;21.15;54.93;99880.16;4932541;29;20442;-69
2023/05/10 01:24:59;;;;;;;4.30;2.03;;;;;;;21.13;54.97;99875.88;4931647;29;20049;-69
2023/05/10 01:27:43;;;;;;;5.30;1.70;;;;;;;21.11;54.97;99875.94;4971307;28;20105;-70
2023/05/10 01:30:36;;;;;;;6.88;1.83;;;;;;;21.10;55.02;99865.44;4946220;28;20105;-69
2023/05/10 01:33:13;;;;;;;4.82;1.88;;;;;;;21.10;55.05;99876.88;4873686;29;20047;-70
2023/05/10 01:35:51;;;;;;;5.97;2.00;;;;;;;21.10;55.16;99866.28;4873627;29;20037;-70
2023/05/10 01:38:22;;;;;;;4.70;1.50;;;;;;;21.08;54.94;99875.25;4873474;29;20041;-69
2023/05/10 01:41:14;;;;;;;5.40;1.55;;;;;;;21.10;54.96;99865.44;4873559;29;20052;-69
2023/05/10 01:43:57;;;;;;;5.72;1.83;;;;;;;21.09;54.78;99863.69;4873785;29;20471;-69
2023/05/10 01:46:57;;;;;;;5.43;1.80;;;;;;;21.05;54.90;99863.00;4873506;29;20040;-69
2023/05/10 01:49:29;;;;;;;5.13;1.63;;;;;;;21.05;54.90;99860.38;4881118;28;20039;-70
2023/05/10 01:52:00;;;;;;;4.63;1.70;;;;;;;21.02;55.02;99868.50;4971165;28;20074;-69
2023/05/10 01:54:28;;;;;;;6.45;1.77;;;;;;;21.04;54.87;99856.00;4917951;28;20048;-69
2023/05/10 01:57:05;;;;;;;4.00;1.55;;;;;;;21.05;54.82;99857.72;4894477;28;20086;-69
2023/05/10 01:59:36;;;;;;;5.53;1.58;;;;;;;21.04;54.77;99851.56;4931748;28;20018;-70
2023/05/10 02:02:02;;;;;;;5.18;1.40;;;;;;;21.02;55.01;99863.19;4932201;29;20031;-70
2023/05/10 02:04:28;;;;;;;4.93;1.60;;;;;;;21.03;55.01;99860.44;4932044;28;20354;-69
2023/05/10 02:06:55;;;;;;;7.10;2.20;;;;;;;21.02;54.88;99857.91;4931942;28;20027;-70
2023/05/10 02:09:22;;;;;;;4.25;1.95;;;;;;;21.03;54.98;99862.25;4932066;29;20054;-69
2023/05/10 02:11:49;;;;;;;4.45;1.55;;;;;;;21.03;54.93;99856.94;4931686;29;20031;-69
2023/05/10 02:14:15;;;;;;;3.45;1.20;;;;;;;21.01;54.88;99856.19;4917264;28;20563;-68
2023/05/10 02:16:42;;;;;;;4.88;1.90;;;;;;;21.00;55.00;99854.44;4916896;29;20032;-69
2023/05/10 02:19:10;;;;;;;4.85;1.42;;;;;;;20.99;54.89;99852.75;4930613;29;20026;-69
2023/05/10 02:21:37;;;;;;;6.30;1.52;;;;;;;20.98;54.97;99845.72;4931867;29;20024;-69
2023/05/10 02:24:04;;;;;;;5.32;1.70;;;;;;;21.01;54.86;99856.19;4931778;29;20107;-69
2023/05/10 02:26:31;;;;;;;4.90;1.83;;;;;;;20.97;54.82;99849.31;4931607;28;20500;-69
2023/05/10 02:28:58;;;;;;;4.30;1.60;;;;;;;20.97;55.06;99844.03;4931490;28;20031;-68
2023/05/10 02:31:24;;;;;;;6.03;1.67;;;;;;;20.97;55.00;99844.03;4931558;29;20057;-70
2023/05/10 02:33:51;;;;;;;5.70;1.63;;;;;;;20.98;54.97;99840.41;4932269;28;20150;-69
2023/05/10 02:36:17;;;;;;;4.82;1.80;;;;;;;20.94;55.06;99845.03;4934912;29;20028;-70
2023/05/10 02:38:44;;;;;;;6.32;1.88;;;;;;;20.94;55.09;99845.03;4935222;28;20533;-69
2023/05/10 02:41:10;;;;;;;6.47;2.00;;;;;;;20.95;54.99;99840.56;4925213;29;20486;-69
2023/05/10 02:43:39;;;;;;;6.13;1.70;;;;;;;20.94;55.03;99839.75;4915634;29;20028;-69
2023/05/10 02:46:05;;;;;;;7.20;1.75;;;;;;;20.93;55.13;99846.81;4915919;29;20032;-70
2023/05/10 02:48:30;;;;;;;3.72;1.30;;;;;;;20.94;55.06;99834.44;4915799;29;20035;-69
2023/05/10 02:51:03;;;;;;;4.50;1.98;;;;;;;20.96;54.80;99837.00;4931336;29;20508;-69
2023/05/10 02:53:35;;;;;;;5.07;1.63;;;;;;;20.96;54.97;99837.00;4934534;29;20044;-69
2023/05/10 02:56:08;;;;;;;5.13;1.60;;;;;;;20.93;54.94;99838.03;4934638;29;20035;-70
2023/05/10 02:58:33;;;;;;;6.22;2.15;;;;;;;20.90;54.98;99828.44;4933927;29;20524;-68
2023/05/10 03:01:00;;;;;;;6.10;2.05;;;;;;;20.90;54.88;99838.19;4934665;29;20032;-69
2023/05/10 03:03:25;;;;;;;5.03;1.77;;;;;;;20.89;54.96;99832.03;4934676;29;20032;-70
2023/05/10 03:05:53;;;;;;;6.53;1.90;;;;;;;20.88;55.17;99835.59;4934588;29;20441;-70
2023/05/10 03:08:19;;;;;;;9.52;2.05;;;;;;;20.89;54.81;99839.13;4934631;29;20043;-69
2023/05/10 03:11:13;;;;;;;6.45;2.10;;;;;;;20.86;54.88;99837.50;4934321;29;20055;-70
2023/05/10 03:14:00;;;;;;;7.15;2.20;;;;;;;20.88;54.77;99840.06;4938529;28;20190;-70
2023/05/10 03:16:33;;;;;;;6.13;1.90;;;;;;;20.86;54.93;99841.94;4934436;28;20043;-68
2023/05/10 03:19:08;;;;;;;5.65;1.85;;;;;;;20.86;55.02;99842.81;4934528;29;20036;-69
2023/05/10 03:21:40;;;;;;;5.55;2.20;;;;;;;20.84;54.94;99844.66;4925374;28;20020;-69
2023/05/10 03:24:08;;;;;;;5.78;1.90;;;;;;;20.85;54.97;99846.41;4915322;29;20036;-69
2023/05/10 03:26:34;;;;;;;5.88;1.60;;;;;;;20.85;55.10;99835.78;4914831;29;20036;-70
2023/05/10 03:29:00;;;;;;;7.53;1.90;;;;;;;20.84;54.75;99831.41;4915409;29;20087;-70
2023/05/10 03:31:26;;;;;;;4.30;1.52;;;;;;;20.82;54.97;99846.53;4915111;29;20051;-68
2023/05/10 03:33:52;;;;;;;6.55;1.65;;;;;;;20.82;54.91;99838.56;4915110;29;20050;-68
2023/05/10 03:36:19;;;;;;;5.65;1.70;;;;;;;20.82;54.99;99840.38;4915204;29;20033;-66
2023/05/10 03:38:44;;;;;;;4.85;1.55;;;;;;;20.81;55.12;99834.22;4915189;29;20040;-68
2023/05/10 03:41:10;;;;;;;6.25;1.67;;;;;;;20.81;55.02;99836.84;4914864;29;20108;-70
2023/05/10 03:43:35;;;;;;;4.97;1.75;;;;;;;20.79;55.14;99841.41;4915024;29;20480;-68
2023/05/10 03:46:04;;;;;;;7.35;2.22;;;;;;;20.79;54.99;99841.41;4914195;29;20371;-70
2023/05/10 03:48:30;;;;;;;7.32;1.98;;;;;;;20.77;55.01;99835.31;4924973;29;20035;-69
2023/05/10 03:50:56;;;;;;;5.95;1.60;;;;;;;20.78;54.94;99829.94;4933924;29;20379;-70
2023/05/10 03:53:22;;;;;;;4.90;1.63;;;;;;;20.78;55.05;99842.34;4933890;28;20043;-68
2023/05/10 03:55:47;;;;;;;3.85;1.38;;;;;;;20.76;55.03;99836.25;4933236;29;20032;-67
2023/05/10 03:58:13;;;;;;;7.35;1.77;;;;;;;20.75;55.10;99839.84;4933887;29;20061;-70
2023/05/10 04:00:43;;;;;;;6.47;2.10;;;;;;;20.73;55.16;99837.28;4933808;29;20481;-69
2023/05/10 04:03:12;;;;;;;5.63;1.88;;;;;;;20.74;55.11;99843.44;4933424;29;20451;-70
2023/05/10 04:05:37;;;;;;;7.60;1.95;;;;;;;20.76;54.88;99852.16;4933606;29;20038;-69
2023/05/10 04:08:03;;;;;;;5.55;1.85;;;;;;;20.74;54.94;99851.41;4933567;29;20035;-69
2023/05/10 04:10:29;;;;;;;5.53;1.77;;;;;;;20.75;54.93;99855.75;4933274;29;20024;-69
2023/05/10 04:12:55;;;;;;;4.82;1.75;;;;;;;20.75;55.08;99845.16;4933669;29;20125;-69
2023/05/10 04:15:20;;;;;;;5.32;1.70;;;;;;;20.73;54.95;99845.22;4933508;29;20042;-70
2023/05/10 04:17:46;;;;;;;7.20;1.80;;;;;;;20.71;55.04;99843.59;4933690;29;20031;-69
2023/05/10 04:20:12;;;;;;;4.38;1.65;;;;;;;20.70;54.98;99847.19;4933462;29;20051;-69
2023/05/10 04:22:37;;;;;;;5.05;1.58;;;;;;;20.68;54.99;99841.13;4933418;29;20031;-70
2023/05/10 04:25:04;;;;;;;7.13;2.40;;;;;;;20.70;55.11;99847.19;4932986;29;20039;-70
2023/05/10 04:27:29;;;;;;;4.40;1.52;;;;;;;20.70;55.11;99847.19;4933421;28;20035;-70
2023/05/10 04:29:55;;;;;;;5.22;1.80;;;;;;;20.67;55.01;99845.56;4933113;28;20031;-69
2023/05/10 04:32:20;;;;;;;4.70;1.67;;;;;;;20.70;55.07;99852.50;4933211;28;20028;-70
2023/05/10 04:34:46;;;;;;;5.55;2.00;;;;;;;20.70;55.15;99849.84;4914872;29;20028;-69
2023/05/10 04:37:11;;;;;;;5.07;1.50;;;;;;;20.66;54.96;99857.97;4914246;29;20083;-69
2023/05/10 04:39:37;;;;;;;4.45;1.50;;;;;;;20.66;54.93;99852.66;4913860;29;20035;-69
2023/05/10 04:42:05;;;;;;;6.22;2.00;;;;;;;20.67;55.06;99848.22;4924285;28;20050;-70
2023/05/10 04:44:31;;;;;;;5.82;1.80;;;;;;;20.65;55.13;99858.91;4917044;29;20062;-70
2023/05/10 04:46:57;;;;;;;6.50;1.95;;;;;;;20.65;54.93;99866.00;4914183;29;20067;-70
2023/05/10 04:49:22;;;;;;;4.55;1.65;;;;;;;20.65;54.94;99861.56;4917076;29;20115;-69
2023/05/10 04:51:48;;;;;;;6.18;1.40;;;;;;;20.62;54.88;99864.38;4930159;28;20533;-69
2023/05/10 04:54:13;;;;;;;4.45;1.65;;;;;;;20.60;55.18;99863.59;4943731;28;20518;-70
2023/05/10 04:56:39;;;;;;;6.20;1.80;;;;;;;20.61;55.17;99867.97;4914045;29;20474;-71
2023/05/10 04:59:04;;;;;;;5.35;1.90;;;;;;;20.62;55.12;99871.44;4913931;29;20402;-69
2023/05/10 05:01:29;;;;;;;5.80;1.70;;;;;;;20.61;55.16;99867.09;4913943;29;20035;-69
2023/05/10 05:03:55;;;;;;;5.63;1.90;;;;;;;20.64;55.04;99874.91;4924830;28;20370;-69
2023/05/10 05:06:24;;;;;;;4.25;1.13;;;;;;;20.62;55.07;99876.75;4932647;28;20035;-70
2023/05/10 05:08:50;;;;;;;4.97;1.52;;;;;;;20.60;55.20;99874.22;4932693;28;20028;-70
2023/05/10 05:11:15;;;;;;;4.40;1.48;;;;;;;20.60;55.00;99874.22;4932800;29;20043;-69
2023/05/10 05:13:41;;;;;;;5.13;1.70;;;;;;;20.60;55.03;99874.22;4923633;29;20055;-69
2023/05/10 05:16:06;;;;;;;9.10;2.35;;;;;;;20.57;54.99;99879.66;4917831;29;20049;-70
2023/05/10 05:18:32;;;;;;;5.55;1.48;;;;;;;20.59;55.02;99883.06;4932718;29;20028;-70
2023/05/10 05:20:57;;;;;;;7.30;1.70;;;;;;;20.56;55.28;99882.38;4932514;29;20038;-70
2023/05/10 05:23:24;;;;;;;3.35;1.42;;;;;;;20.55;55.29;99881.53;4932209;29;20385;-68
2023/05/10 05:25:52;;;;;;;6.10;1.65;;;;;;;20.55;55.05;99876.25;4931843;29;20042;-69
2023/05/10 05:28:17;;;;;;;5.70;1.50;;;;;;;20.53;55.04;99883.41;4932637;29;20078;-67
2023/05/10 05:30:43;;;;;;;8.40;1.90;;;;;;;20.52;55.10;99885.22;4932059;29;20032;-69
2023/05/10 05:33:08;;;;;;;7.40;2.20;;;;;;;20.55;56.09;99886.84;4929168;29;20031;-69
2023/05/10 05:35:34;;;;;;;10.07;2.47;;;;;;;20.55;56.45;99896.59;4932541;28;20375;-68
2023/05/10 05:37:59;;;;;;;12.07;2.92;;;;;;;20.57;56.36;99911.47;4931171;28;20398;-69
2023/05/10 05:40:24;;;;;;;9.55;2.92;;;;;;;20.59;56.40;99904.28;4932124;29;20031;-69
2023/05/10 05:42:50;;;;;;;8.25;2.10;;;;;;;20.61;56.08;99907.75;4919100;29;20659;-70
2023/05/10 05:45:16;;;;;;;9.38;2.35;;;;;;;20.64;55.85;99907.56;4932021;29;20036;-69
2023/05/10 05:47:41;;;;;;;10.05;2.40;;;;;;;20.64;55.34;99912.88;4931907;29;20027;-69
2023/05/10 05:50:07;;;;;;;7.20;2.30;;;;;;;20.64;55.31;99918.16;4931721;29;20019;-69
2023/05/10 05:52:32;;;;;;;5.45;1.75;;;;;;;20.66;55.22;99920.75;4932263;29;20031;-70
2023/05/10 05:54:58;;;;;;;7.68;2.30;;;;;;;20.67;55.06;99917.16;4931728;29;20494;-71
2023/05/10 05:57:23;;;;;;;7.65;2.10;;;;;;;20.63;55.19;99921.75;4931609;29;20024;-70
2023/05/10 05:59:48;;;;;;;6.20;1.75;;;;;;;20.63;55.35;99927.06;4929863;29;20464;-70
2023/05/10 06:02:14;;;;;;;8.35;2.38;;;;;;;20.64;55.36;99927.94;4913888;28;20027;-70
2023/05/10 06:04:39;;;;;;;8.32;2.13;;;;;;;20.61;55.38;99934.25;4921242;29;20115;-70
2023/05/10 06:07:05;;;;;;;6.82;1.67;;;;;;;20.61;55.46;99933.38;4930448;29;20061;-70
2023/05/10 06:09:31;;;;;;;10.30;2.13;;;;;;;20.58;55.21;99934.41;4928084;29;20178;-69
2023/05/10 06:11:57;;;;;;;9.75;2.00;;;;;;;20.56;55.17;99936.28;4914189;29;20700;-69
2023/05/10 06:14:23;;;;;;;6.28;1.80;;;;;;;20.57;55.08;99932.69;4931787;28;20050;-69
2023/05/10 06:16:48;;;;;;;9.57;2.47;;;;;;;20.58;55.26;99936.22;4931813;28;20028;-68
2023/05/10 06:19:14;;;;;;;7.50;2.00;;;;;;;20.56;55.15;99933.63;4931839;28;20035;-69
2023/05/10 06:21:39;;;;;;;10.20;2.22;;;;;;;20.53;55.39;99931.13;4931721;29;20031;-70
2023/05/10 06:24:06;;;;;;;7.68;1.85;;;;;;;20.56;54.96;99920.38;4920711;29;20062;-69
2023/05/10 06:26:32;;;;;;;8.98;1.90;;;;;;;20.56;55.17;99925.66;4912615;29;20063;-71
2023/05/10 06:28:57;;;;;;;6.68;2.28;;;;;;;20.62;55.03;99930.66;4911454;29;20079;-72
2023/05/10 06:31:23;;;;;;;8.90;2.28;;;;;;;20.64;54.89;99925.28;4911435;29;20028;-71
2023/05/10 06:33:48;;;;;;;6.75;2.00;;;;;;;20.62;54.95;99925.34;4921226;28;20028;-71
2023/05/10 06:36:14;;;;;;;7.63;1.92;;;;;;;20.62;54.78;99925.34;4945888;29;20119;-71
2023/05/10 06:38:39;;;;;;;7.63;1.85;;;;;;;20.66;54.90;99926.91;4931555;28;20059;-72
2023/05/10 06:41:05;;;;;;;7.10;1.80;;;;;;;20.62;54.79;99941.25;4931528;28;20381;-70
2023/05/10 06:43:30;;;;;;;7.18;1.95;;;;;;;20.68;54.66;99928.63;4931418;28;20516;-70
2023/05/10 06:45:56;;;;;;;9.35;2.22;;;;;;;20.64;54.82;99935.88;4925058;29;20028;-69
2023/05/10 06:48:21;;;;;;;6.43;1.95;;;;;;;20.64;54.45;99941.19;4929652;29;20032;-70
2023/05/10 06:50:47;;;;;;;9.40;2.28;;;;;;;20.62;54.59;99930.66;4915825;29;20028;-70
2023/05/10 06:53:13;;;;;;;10.18;2.15;;;;;;;20.63;54.69;99932.38;4916116;29;20043;-70
2023/05/10 06:55:39;;;;;;;8.35;2.00;;;;;;;20.64;54.60;99939.38;4931471;29;20039;-70
2023/05/10 06:58:04;;;;;;;7.65;2.00;;;;;;;20.64;54.58;99939.38;4929904;29;20032;-70
2023/05/10 07:00:30;;;;;;;7.15;1.80;;;;;;;20.63;54.49;99932.38;4931032;29;20036;-70
2023/05/10 07:02:55;;;;;;;8.65;2.20;;;;;;;20.65;54.55;99941.13;4931211;29;20035;-71
2023/05/10 07:05:21;;;;;;;8.50;2.08;;;;;;;20.70;54.50;99942.66;4930913;29;20034;-71
2023/05/10 07:07:46;;;;;;;6.80;2.20;;;;;;;20.72;54.38;99940.78;4931393;29;20028;-71
2023/05/10 07:10:12;;;;;;;9.05;2.35;;;;;;;20.71;54.47;99939.06;4931219;29;20028;-71
2023/05/10 07:12:38;;;;;;;8.25;1.98;;;;;;;20.72;54.29;99946.09;4931304;29;20031;-70
2023/05/10 07:15:04;;;;;;;9.38;2.15;;;;;;;20.74;54.30;99945.09;4931135;29;20035;-69
2023/05/10 07:17:29;;;;;;;4.88;1.50;;;;;;;20.73;54.43;99945.16;4930720;29;20085;-70
2023/05/10 07:19:55;;;;;;;8.00;2.30;;;;;;;20.71;54.29;99944.34;4931203;29;20039;-70
2023/05/10 07:22:20;;;;;;;7.00;1.65;;;;;;;20.71;54.44;99944.34;4933370;29;20490;-71
2023/05/10 07:24:46;;;;;;;7.13;2.05;;;;;;;20.74;54.24;99939.78;4934324;29;20027;-71
2023/05/10 07:27:12;;;;;;;6.70;1.95;;;;;;;20.79;54.07;99936.88;4934174;29;20086;-71
2023/05/10 07:29:38;;;;;;;8.90;1.80;;;;;;;20.75;54.16;99940.63;4934520;28;20035;-70
2023/05/10 07:32:03;;;;;;;7.85;1.90;;;;;;;20.78;54.20;99945.78;4933867;29;20512;-70
2023/05/10 07:34:30;;;;;;;6.72;2.13;;;;;;;20.79;54.11;99942.19;4934062;29;20089;-70
2023/05/10 07:36:57;;;;;;;4.28;1.67;;;;;;;20.80;54.23;99943.88;4934343;28;20117;-69
2023/05/10 07:39:22;;;;;;;7.60;1.98;;;;;;;20.81;54.19;99945.59;4934030;29;20034;-70
2023/05/10 07:41:48;;;;;;;5.72;1.63;;;;;;;20.78;54.05;99946.63;4934001;29;20027;-70
2023/05/10 07:44:13;;;;;;;8.10;1.83;;;;;;;20.79;53.98;99948.31;4934132;29;20028;-70
2023/05/10 07:46:39;;;;;;;7.13;1.73;;;;;;;20.78;54.14;99946.63;4933718;29;20082;-70
2023/05/10 07:49:04;;;;;;;7.68;2.33;;;;;;;20.79;54.13;99942.19;4933953;29;20032;-70
2023/05/10 07:51:30;;;;;;;6.72;2.38;;;;;;;20.79;54.05;99942.19;4934046;29;20543;-71
2023/05/10 07:53:55;;;;;;;5.40;1.65;;;;;;;20.80;54.14;99935.94;4933663;28;20059;-70
2023/05/10 07:56:32;;;;;;;9.55;2.00;;;;;;;20.80;53.95;99935.94;4933865;29;20032;-70
2023/05/10 07:59:01;;;;;;;8.32;2.10;;;;;;;20.80;53.90;99938.59;4933701;29;20474;-69
2023/05/10 08:01:30;;;;;;;6.28;1.55;;;;;;;20.82;53.98;99936.69;4933651;29;20127;-70
2023/05/10 08:03:56;;;;;;;8.48;2.47;;;;;;;20.80;54.11;99935.94;4933312;29;20035;-70
2023/05/10 08:06:21;;;;;;;6.45;2.17;;;;;;;20.81;54.01;99929.69;4933665;29;20039;-70
2023/05/10 08:08:50;;;;;;;9.07;2.40;;;;;;;20.84;53.77;99934.84;4916478;29;20063;-71
2023/05/10 08:11:20;;;;;;;6.97;2.38;;;;;;;20.83;53.95;99932.25;4933710;29;20028;-71
2023/05/10 08:13:46;;;;;;;7.50;2.00;;;;;;;20.83;53.82;99932.25;4933393;29;20106;-71
2023/05/10 08:16:12;;;;;;;7.05;1.70;;;;;;;20.84;54.10;99940.16;4933171;29;20089;-71
2023/05/10 08:18:38;;;;;;;5.57;1.80;;;;;;;20.85;53.76;99936.59;4916544;29;20489;-71
2023/05/10 08:21:04;;;;;;;5.65;2.00;;;;;;;20.84;53.81;99939.28;4933656;29;20032;-70
2023/05/10 08:23:29;;;;;;;6.00;1.70;;;;;;;20.86;53.81;99940.94;4933363;29;20032;-71
2023/05/10 08:25:54;;;;;;;6.53;1.80;;;;;;;20.86;53.61;99926.81;4933418;29;20031;-72
2023/05/10 08:28:20;;;;;;;7.72;2.17;;;;;;;20.86;53.79;99930.34;4933437;29;20059;-71
2023/05/10 08:30:45;;;;;;;5.50;1.90;;;;;;;20.86;53.81;99933.00;4932936;28;20090;-70
2023/05/10 08:33:11;;;;;;;4.75;1.85;;;;;;;20.88;53.77;99936.41;4932916;28;20034;-70
2023/05/10 08:35:36;;;;;;;6.40;2.08;;;;;;;20.87;53.82;99945.31;4933065;29;20046;-71
2023/05/10 08:38:02;;;;;;;5.75;2.05;;;;;;;20.85;53.88;99936.59;4933326;28;20043;-69
2023/05/10 08:40:27;;;;;;;5.43;1.40;;;;;;;20.88;53.76;99936.41;4933236;28;20058;-71
2023/05/10 08:43:06;;;;;;;6.30;2.20;;;;;;;20.88;53.72;99931.09;4933324;28;20394;-71
2023/05/10 08:45:33;;;;;;;7.63;2.20;;;;;;;20.89;53.63;99935.50;4932766;28;20493;-71
2023/05/10 08:48:04;;;;;;;6.68;1.83;;;;;;;20.89;53.67;99927.53;4928188;28;20028;-71
2023/05/10 08:50:31;;;;;;;5.30;1.70;;;;;;;20.89;53.69;99924.00;4925952;29;20145;-71
2023/05/10 08:53:00;;;;;;;6.53;2.03;;;;;;;20.90;53.73;99918.63;4933043;28;20028;-71
2023/05/10 08:55:26;;;;;;;9.55;2.83;;;;;;;20.89;53.66;99927.53;4933171;29;20036;-71
2023/05/10 08:57:52;;;;;;;5.53;1.48;;;;;;;20.90;53.69;99933.69;4932996;29;20035;-71
2023/05/10 09:00:19;;;;;;;6.55;2.00;;;;;;;20.91;53.56;99936.25;4932595;29;20024;-69
2023/05/10 09:02:45;;;;;;;6.40;1.88;;;;;;;20.92;53.56;99937.13;4932836;29;20024;-71
2023/05/10 09:05:12;;;;;;;7.95;2.00;;;;;;;20.92;53.54;99926.50;4932904;29;20020;-70
2023/05/10 09:07:37;;;;;;;5.25;1.50;;;;;;;20.93;53.55;99939.66;4933098;29;20028;-71
2023/05/10 09:10:04;;;;;;;6.63;1.73;;;;;;;20.92;53.58;99927.34;4932820;29;20028;-71
2023/05/10 09:12:29;;;;;;;6.88;1.60;;;;;;;20.93;53.55;99933.53;4932866;29;20067;-70
2023/05/10 09:14:57;;;;;;;7.97;2.05;;;;;;;20.95;53.39;99925.47;4932547;29;20499;-71
2023/05/10 09:17:23;;;;;;;5.68;1.88;;;;;;;20.94;53.48;99919.31;4932790;29;20044;-71
2023/05/10 09:19:49;;;;;;;5.05;1.77;;;;;;;20.95;53.49;99914.84;4932260;28;20503;-70
2023/05/10 09:22:14;;;;;;;5.65;1.50;;;;;;;20.95;53.52;99920.16;4932701;29;20034;-71
2023/05/10 09:24:44;;;;;;;6.53;1.90;;;;;;;20.95;53.30;99921.03;4915587;28;20036;-69
2023/05/10 09:27:10;;;;;;;5.50;2.00;;;;;;;20.93;53.29;99913.16;4915260;28;20032;-69
2023/05/10 09:29:42;;;;;;;7.38;1.73;;;;;;;20.96;53.08;99920.09;4932169;29;20038;-70
2023/05/10 09:32:08;;;;;;;7.88;1.80;;;;;;;20.97;53.04;99915.66;4947086;28;20036;-70
2023/05/10 09:34:35;;;;;;;7.13;2.30;;;;;;;20.97;53.17;99924.44;4926609;28;20031;-70
2023/05/10 09:37:03;;;;;;;7.10;1.95;;;;;;;20.97;53.03;99911.19;4913372;29;20505;-69
2023/05/10 09:39:37;;;;;;;7.07;1.95;;;;;;;20.97;53.06;99913.00;4913324;29;20085;-71
2023/05/10 09:42:09;;;;;;;6.68;1.80;;;;;;;20.97;53.06;99905.88;4913409;29;20102;-71
2023/05/10 09:44:36;;;;;;;8.02;2.33;;;;;;;20.99;53.00;99906.66;4912186;29;20517;-71
2023/05/10 09:47:02;;;;;;;6.38;1.85;;;;;;;20.99;53.05;99914.63;4913288;29;20059;-70
2023/05/10 09:49:28;;;;;;;5.68;1.70;;;;;;;20.99;53.16;99900.50;4916964;29;20481;-70
2023/05/10 09:52:04;;;;;;;7.65;2.00;;;;;;;21.01;53.07;99903.94;4932276;29;20046;-71
2023/05/10 09:54:30;;;;;;;6.78;1.98;;;;;;;20.99;52.89;99895.19;4931942;28;20127;-70
2023/05/10 09:56:56;;;;;;;5.43;1.52;;;;;;;20.99;52.82;99898.72;4932344;29;20457;-71
2023/05/10 09:59:21;;;;;;;6.95;2.10;;;;;;;21.00;53.03;99891.59;4931782;29;20111;-71
2023/05/10 10:01:51;;;;;;;6.85;1.90;;;;;;;21.01;53.02;99898.63;4932128;29;20444;-70
2023/05/10 10:04:17;;;;;;;7.15;2.03;;;;;;;21.01;52.90;99888.03;4932108;29;20082;-72
2023/05/10 10:06:42;;;;;;;5.90;1.35;;;;;;;21.02;52.91;99890.56;4931927;29;20035;-70
2023/05/10 10:09:08;;;;;;;5.15;2.08;;;;;;;21.03;52.84;99886.13;4931882;29;20436;-70
2023/05/10 10:11:35;;;;;;;7.15;2.13;;;;;;;21.03;52.90;99888.78;4914576;29;20082;-71
2023/05/10 10:14:01;;;;;;;9.45;1.90;;;;;;;21.04;52.92;99885.19;4931778;29;20550;-71
2023/05/10 10:16:28;;;;;;;6.15;1.73;;;;;;;21.05;52.83;99884.25;4931914;29;20027;-70
2023/05/10 10:18:54;;;;;;;5.40;1.60;;;;;;;21.05;52.73;99879.81;4931759;28;20032;-70
2023/05/10 10:21:20;;;;;;;5.97;2.10;;;;;;;21.07;52.64;99877.06;4931599;28;20123;-71
2023/05/10 10:23:46;;;;;;;6.45;2.10;;;;;;;21.07;52.74;99882.38;4931735;29;20039;-70
2023/05/10 10:26:12;;;;;;;6.43;2.00;;;;;;;21.08;52.65;99873.47;4928362;28;20032;-70
2023/05/10 10:29:06;;;;;;;6.60;1.90;;;;;;;21.08;52.72;99873.47;4912640;29;20039;-70
2023/05/10 10:31:47;;;;;;;5.43;1.75;;;;;;;21.11;52.54;99873.28;4912879;29;20035;-70
2023/05/10 10:34:29;;;;;;;7.80;1.70;;;;;;;21.11;52.59;99867.16;4912384;29;20025;-70
2023/05/10 10:36:56;;;;;;;5.28;1.38;;;;;;;21.12;52.50;99875.00;4922121;29;20370;-70
2023/05/10 10:39:24;;;;;;;6.22;1.60;;;;;;;21.13;52.57;99868.78;4928423;28;20371;-69
2023/05/10 10:41:50;;;;;;;5.50;1.77;;;;;;;21.14;52.53;99862.53;4919088;29;20028;-71
2023/05/10 10:44:24;;;;;;;5.97;1.63;;;;;;;21.15;52.40;99864.22;4912590;29;20075;-70
2023/05/10 10:46:59;;;;;;;4.30;1.50;;;;;;;21.17;52.51;99867.63;4912577;29;20527;-71
2023/05/10 10:49:25;;;;;;;5.95;1.75;;;;;;;21.17;52.30;99851.72;4915594;29;20107;-70
2023/05/10 10:52:28;;;;;;;5.50;1.70;;;;;;;21.19;52.45;99864.91;4914407;28;20096;-72
2023/05/10 10:55:14;;;;;;;5.75;1.95;;;;;;;21.20;52.45;99861.31;4930112;28;20646;-70
2023/05/10 10:57:46;;;;;;;6.95;1.95;;;;;;;21.21;52.32;99851.56;4917433;29;20396;-70
2023/05/10 11:00:23;;;;;;;6.35;1.75;;;;;;;21.23;52.23;99857.63;4931735;29;20046;-69
2023/05/10 11:02:51;;;;;;;3.80;1.60;;;;;;;21.24;52.27;99859.34;4931276;29;20047;-69
2023/05/10 11:05:36;;;;;;;5.70;1.75;;;;;;;21.23;52.36;99860.28;4933527;29;20027;-70
2023/05/10 11:08:12;;;;;;;8.27;1.92;;;;;;;21.25;52.14;99874.34;4932859;29;20501;-69
2023/05/10 11:10:37;;;;;;;7.40;1.98;;;;;;;21.24;52.19;99899.16;4916182;28;20111;-70
2023/05/10 11:13:05;;;;;;;5.97;1.80;;;;;;;21.25;52.08;99892.91;4932868;29;20460;-70
2023/05/10 11:15:35;;;;;;;8.40;2.05;;;;;;;21.24;52.21;99891.19;4933485;29;20058;-70
2023/05/10 11:18:16;;;;;;;7.07;1.55;;;;;;;21.26;52.13;99886.66;4933433;29;20056;-66
2023/05/10 11:20:41;;;;;;;5.43;1.73;;;;;;;21.27;52.11;99880.41;4933715;29;20024;-67
2023/05/10 11:23:15;;;;;;;4.72;1.40;;;;;;;21.27;52.01;99885.72;4933930;29;20097;-68
2023/05/10 11:25:45;;;;;;;7.40;2.13;;;;;;;21.27;51.99;99894.56;4933399;29;20497;-69
2023/05/10 11:28:12;;;;;;;7.28;1.73;;;;;;;21.28;52.24;99906.00;4934129;29;20096;-68
2023/05/10 11:30:39;;;;;;;7.13;1.92;;;;;;;21.28;52.27;99900.69;4933494;29;20039;-70
2023/05/10 11:33:06;;;;;;;6.45;1.70;;;;;;;21.27;52.45;99899.84;4933810;29;20089;-70
2023/05/10 11:35:38;;;;;;;6.30;1.63;;;;;;;21.29;52.12;99887.34;4916494;29;20047;-70
2023/05/10 11:38:09;;;;;;;7.18;2.10;;;;;;;21.29;52.46;99881.16;4934038;29;20032;-70